MDT,Max TemperatureF,Mean TemperatureF,Min TemperatureF,Max Dew PointF,MeanDew PointF,Min DewpointF,Max Humidity, Mean Humidity, Min Humidity, Max Sea Level PressureIn, Mean Sea Level PressureIn, Min Sea Level PressureIn, Max VisibilityMiles, Mean VisibilityMiles, Min VisibilityMiles, Max Wind SpeedMPH, Mean Wind SpeedMPH, Max Gust SpeedMPH,PrecipitationIn, CloudCover, Events, WindDirDegrees
2012-10-1,78,56,35,41,35,28,93,57,16,30.40,30.31,30.20,10,10,7,13,2,,0.00,0,,183
2012-10-2,78,56,33,37,33,27,93,56,16,30.24,30.14,30.04,10,10,7,20,2,24,0.00,0,,204
2012-10-3,73,54,35,39,27,9,93,48,11,30.18,30.10,30.03,10,10,7,20,4,26,0.00,1,,183
2012-10-4,71,48,26,30,23,18,80,46,14,30.22,30.14,30.03,10,10,7,16,2,22,0.00,0,,170
2012-10-5,62,47,32,28,18,10,65,36,14,30.21,30.15,30.06,10,10,5,21,5,33,0.00,0,,172
2012-10-6,60,42,23,23,16,10,80,43,15,30.26,30.17,30.08,10,10,10,13,3,12,0.00,0,,132
2012-10-7,60,40,19,19,15,9,80,47,15,30.26,30.18,30.11,10,10,10,14,2,18,0.00,0,,173
2012-10-8,71,45,19,25,19,14,86,50,13,30.17,30.09,29.99,10,10,5,15,2,23,0.00,0,,192
2012-10-9,73,50,26,30,25,21,86,50,15,30.12,30.07,30.03,10,10,7,15,2,22,0.00,0,,192
2012-10-10,73,52,32,43,31,25,81,51,20,30.16,30.10,30.00,10,10,2,21,3,31,0.00,2,,209
2012-10-11,77,56,35,43,35,25,93,55,18,30.11,30.04,29.96,10,10,7,12,1,17,0.00,1,,141
2012-10-12,51,46,41,46,38,32,87,73,58,30.08,30.00,29.94,10,10,5,16,3,16,0.00,6,Rain-Thunderstorm,190
2012-10-13,53,46,39,41,39,36,93,77,58,30.35,30.22,30.08,10,10,4,9,2,,0.00,8,,61
2012-10-14,64,48,32,41,35,32,100,72,34,30.44,30.35,30.28,10,9,0,14,2,,0.00,1,Fog-Snow,224
2012-10-15,69,48,28,37,33,28,100,67,25,30.29,30.18,30.08,10,10,0,16,2,22,0.00,1,Fog,185
2012-10-16,69,50,32,45,35,25,100,65,26,30.11,29.99,29.80,10,10,7,24,5,33,0.00,3,Rain,53
2012-10-17,55,42,28,27,18,9,75,42,19,30.25,30.17,30.05,10,10,10,16,7,21,0.00,0,Thunderstorm,157
2012-10-18,62,42,23,25,19,14,80,52,16,30.38,30.30,30.25,10,10,5,15,2,,0.00,0,,194
2012-10-19,69,46,23,28,25,21,93,58,17,30.28,30.15,30.02,10,10,7,14,2,21,0.00,0,,201
2012-10-20,71,52,32,34,27,21,93,50,16,30.02,29.86,29.72,10,10,10,23,4,37,0.00,2,,223
2012-10-21,64,53,42,45,33,21,76,47,23,29.85,29.82,29.79,10,10,10,21,7,26,0.00,4,Rain,171
2012-10-22,62,56,51,41,35,30,67,43,32,29.81,29.74,29.68,10,10,7,31,14,47,0.00,7,Rain-Thunderstorm,215
2012-10-23,55,45,35,37,33,30,87,63,41,29.93,29.83,29.69,10,10,7,36,18,52,0.00,6,Rain-Thunderstorm,305
2012-10-24,41,36,30,34,29,27,93,78,57,30.10,29.98,29.92,10,9,1,16,7,18,0.00,7,Snow-Thunderstorm,75
2012-10-25,37,30,23,32,27,21,100,86,60,30.39,30.19,30.09,10,8,0,14,2,20,0.00,5,Snow-Thunderstorm,50
2012-10-26,44,35,26,27,22,14,93,69,29,30.47,30.34,30.18,10,10,10,12,2,,0.00,5,,101
2012-10-27,53,37,21,30,22,16,86,58,28,30.24,30.19,30.14,10,10,10,15,2,21,0.00,1,,163
2012-10-28,62,45,28,32,30,25,93,65,31,30.25,30.20,30.14,10,10,10,10,2,,0.00,2,,157
2012-10-29,68,48,28,34,30,27,100,66,21,30.27,30.23,30.19,10,10,10,14,2,17,0.00,0,,183
2012-10-30,69,46,24,32,28,23,93,62,18,30.30,30.24,30.17,10,10,7,15,1,,0.00,0,,200
2012-10-31,71,48,26,32,27,23,93,58,16,30.26,30.18,30.07,10,10,7,10,1,,0.00,0,,207